Terminal Aerodrome Forecast
Issued by NWS Jackson, MS

Home | Current Version | Previous Version | Text Only | Print | Product List | Glossary On
Versions: 1 2 3 4 5 6 7 8 9 10 11 12
000
FTUS44 KJAN 290500
TAFJAN
TAF
KJAN 290520Z 2906/3006 15003KT P6SM SCT250
     FM291430 14006KT P6SM SCT040 SCT250
     FM292100 13007KT P6SM VCTS BKN050CB BKN250
     FM300100 15003KT P6SM OVC250=

USA.gov is the U.S. government's official web portal to all federal, state and local government web resources and services.